createdAt,value
2023-04-10T00:00:53.182Z,72.47
2023-04-10T00:03:20.983Z,69.27
2023-04-10T00:05:50.115Z,72.93
2023-04-10T00:08:17.851Z,70.96
2023-04-10T00:10:45.502Z,68.88
2023-04-10T00:13:13.146Z,68.72
2023-04-10T00:15:40.791Z,66.70
2023-04-10T00:18:08.582Z,67.07
2023-04-10T00:20:36.439Z,67.04
2023-04-10T00:23:05.514Z,65.36
2023-04-10T00:25:33.144Z,65.89
2023-04-10T00:28:00.800Z,64.82
2023-04-10T00:30:28.475Z,64.23
2023-04-10T00:32:56.181Z,63.85
2023-04-10T00:35:36.165Z,64.68
2023-04-10T00:38:05.235Z,66.97
2023-04-10T00:40:32.893Z,65.54
2023-04-10T00:45:36.785Z,66.55
2023-04-10T00:48:04.737Z,64.00
2023-04-10T00:50:32.435Z,64.61
2023-04-10T00:53:02.784Z,65.26
2023-04-10T00:55:31.838Z,64.14
2023-04-10T00:57:59.501Z,65.53
2023-04-10T01:00:27.162Z,66.11
2023-04-10T01:02:55.811Z,67.89
2023-04-10T01:05:24.024Z,64.37
2023-04-10T01:07:59.378Z,65.78
2023-04-10T01:10:35.212Z,66.26
2023-04-10T01:15:51.986Z,64.02
2023-04-10T01:18:24.696Z,64.07
2023-04-10T01:20:54.756Z,64.05
2023-04-10T01:23:44.345Z,65.82
2023-04-10T01:26:17.179Z,64.08
2023-04-10T01:28:53.736Z,62.97
2023-04-10T01:31:25.031Z,63.79
2023-04-10T01:33:56.081Z,62.89
2023-04-10T01:36:28.063Z,65.53
2023-04-10T01:38:57.852Z,64.93
2023-04-10T01:41:35.273Z,64.73
2023-04-10T01:44:04.967Z,65.46
2023-04-10T01:46:33.074Z,65.96
2023-04-10T01:49:03.489Z,65.57
2023-04-10T01:51:32.670Z,64.83
2023-04-10T01:54:01.962Z,64.99
2023-04-10T01:56:29.866Z,65.91
2023-04-10T01:58:57.641Z,63.40
2023-04-10T02:01:30.113Z,66.88
2023-04-10T02:03:58.931Z,66.94
2023-04-10T02:06:39.108Z,63.54
2023-04-10T02:09:13.820Z,64.00
2023-04-10T02:11:45.505Z,63.23
2023-04-10T02:14:17.622Z,63.10
2023-04-10T02:16:46.933Z,62.14
2023-04-10T02:19:15.384Z,63.43
2023-04-10T02:21:43.901Z,63.69
2023-04-10T02:24:11.561Z,64.37
2023-04-10T02:26:46.455Z,61.54
2023-04-10T02:29:14.122Z,61.61
2023-04-10T02:31:42.250Z,62.82
2023-04-10T02:34:11.614Z,62.24
2023-04-10T02:36:39.767Z,64.41
2023-04-10T02:39:08.143Z,64.13
2023-04-10T02:41:35.777Z,63.03
2023-04-10T02:44:27.089Z,64.12
2023-04-10T02:46:54.770Z,64.43
2023-04-10T02:49:23.916Z,64.09
2023-04-10T02:51:51.586Z,63.72
2023-04-10T02:54:19.257Z,63.37
2023-04-10T02:56:47.343Z,63.50
2023-04-10T02:59:14.984Z,63.79
2023-04-10T03:01:42.812Z,62.60
2023-04-10T03:04:10.713Z,66.93
2023-04-10T03:06:39.932Z,64.46
2023-04-10T03:09:07.616Z,64.96
2023-04-10T03:11:35.792Z,66.40
2023-04-10T03:14:03.789Z,66.56
2023-04-10T03:16:31.501Z,66.33
2023-04-10T03:18:59.448Z,63.57
2023-04-10T03:21:27.508Z,64.26
2023-04-10T03:23:56.927Z,62.96
2023-04-10T03:26:25.213Z,65.52
2023-04-10T03:28:52.906Z,66.75
2023-04-10T03:31:20.599Z,65.75
2023-04-10T03:36:33.518Z,64.15
2023-04-10T03:39:02.738Z,65.04
2023-04-10T03:41:31.101Z,64.27
2023-04-10T03:43:58.816Z,64.46
2023-04-10T03:46:26.550Z,66.69
2023-04-10T03:48:54.364Z,65.64
2023-04-10T03:51:23.492Z,65.52
2023-04-10T03:53:51.575Z,67.98
2023-04-10T03:56:20.848Z,65.27
2023-04-10T03:58:48.528Z,65.13
2023-04-10T04:01:16.249Z,65.65
2023-04-10T04:03:44.073Z,65.46
2023-04-10T04:06:11.815Z,66.13
2023-04-10T04:08:39.775Z,64.15
2023-04-10T04:11:07.993Z,67.96
2023-04-10T04:13:37.152Z,65.38
2023-04-10T04:16:05.298Z,66.16
2023-04-10T04:18:32.975Z,65.82
2023-04-10T04:21:00.778Z,66.18
2023-04-10T04:23:28.501Z,65.48
2023-04-10T04:25:57.122Z,65.28
2023-04-10T04:28:24.824Z,66.23
2023-04-10T04:30:54.084Z,65.69
2023-04-10T04:33:21.765Z,66.61
2023-04-10T04:35:50.871Z,70.37
2023-04-10T04:38:20.248Z,66.87
2023-04-10T04:40:47.972Z,65.81
2023-04-10T04:43:15.721Z,64.31
2023-04-10T04:45:43.418Z,66.25
2023-04-10T04:48:12.552Z,66.76
2023-04-10T04:50:41.454Z,66.76
2023-04-10T04:53:09.253Z,64.90
2023-04-10T04:55:36.908Z,65.89
2023-04-10T04:58:04.581Z,65.31
2023-04-10T05:00:32.265Z,66.17
2023-04-10T05:03:00.043Z,64.93
2023-04-10T05:05:29.239Z,64.90
2023-04-10T05:07:56.948Z,65.40
2023-04-10T05:10:24.720Z,66.34
2023-04-10T05:12:52.391Z,66.01
2023-04-10T05:15:35.259Z,65.28
2023-04-10T05:18:03.132Z,65.43
2023-04-10T05:20:32.416Z,65.44
2023-04-10T05:23:00.110Z,64.98
2023-04-10T05:25:27.881Z,64.19
2023-04-10T05:27:56.099Z,65.20
2023-04-10T05:30:24.763Z,64.22
2023-04-10T05:32:52.485Z,62.08
2023-04-10T05:35:20.276Z,63.08
2023-04-10T05:37:49.343Z,62.21
2023-04-10T05:40:17.041Z,61.71
2023-04-10T05:42:44.793Z,63.10
2023-04-10T05:45:12.600Z,63.58
2023-04-10T05:47:40.353Z,64.54
2023-04-10T05:50:08.599Z,64.34
2023-04-10T05:52:36.308Z,63.40
2023-04-10T05:55:06.101Z,64.07
2023-04-10T05:57:33.775Z,60.92
2023-04-10T06:00:01.677Z,60.84
2023-04-10T06:02:29.595Z,60.26
2023-04-10T06:04:57.632Z,63.77
2023-04-10T06:07:25.589Z,62.02
2023-04-10T06:09:53.228Z,61.94
2023-04-10T06:12:22.344Z,61.91
2023-04-10T06:14:50.246Z,62.26
2023-04-10T06:17:18.084Z,62.63
2023-04-10T06:19:45.868Z,60.67
2023-04-10T06:22:13.552Z,60.69
2023-04-10T06:24:41.248Z,60.11
2023-04-10T06:27:08.930Z,57.15
2023-04-10T06:29:38.013Z,57.93
2023-04-10T06:32:05.825Z,59.50
2023-04-10T06:34:33.582Z,56.48
2023-04-10T06:37:01.254Z,58.06
2023-04-10T06:39:28.934Z,57.58
2023-04-10T06:41:57.767Z,56.48
2023-04-10T06:44:25.537Z,55.48
2023-04-10T06:46:54.612Z,56.38
2023-04-10T06:49:22.335Z,54.17
2023-04-10T06:51:50.070Z,54.91
2023-04-10T06:54:17.764Z,55.01
2023-04-10T06:56:45.402Z,54.13
2023-04-10T06:59:13.142Z,52.32
2023-04-10T07:01:40.869Z,51.70
2023-04-10T07:04:09.973Z,53.28
2023-04-10T07:06:38.009Z,55.37
2023-04-10T07:09:05.701Z,51.92
2023-04-10T07:11:33.389Z,52.11
2023-04-10T07:14:01.086Z,52.37
2023-04-10T07:16:29.453Z,52.08
2023-04-10T07:18:57.411Z,50.96
2023-04-10T07:21:27.325Z,48.92
2023-04-10T07:23:55.044Z,49.72
2023-04-10T07:26:22.763Z,49.86
2023-04-10T07:28:50.450Z,48.34
2023-04-10T07:31:18.872Z,48.38
2023-04-10T07:33:47.133Z,47.34
2023-04-10T07:36:14.915Z,47.49
2023-04-10T07:38:44.049Z,46.41
2023-04-10T07:41:12.387Z,47.81
2023-04-10T07:43:40.152Z,46.45
2023-04-10T07:46:08.308Z,46.48
2023-04-10T07:48:36.642Z,47.95
2023-04-10T07:51:04.594Z,45.09
2023-04-10T07:53:32.384Z,46.99
2023-04-10T07:56:01.643Z,45.64
2023-04-10T07:58:29.352Z,45.08
2023-04-10T08:00:57.031Z,44.91
2023-04-10T08:03:24.906Z,43.44
2023-04-10T08:05:53.044Z,45.56
2023-04-10T08:08:20.736Z,45.95
2023-04-10T08:10:48.710Z,45.18
2023-04-10T08:13:17.778Z,43.94
2023-04-10T08:15:45.478Z,44.76
2023-04-10T08:18:13.111Z,45.53
2023-04-10T08:20:40.801Z,43.60
2023-04-10T08:23:19.750Z,44.44
2023-04-10T08:25:56.227Z,45.73
2023-04-10T08:28:25.582Z,44.74
2023-04-10T08:30:54.559Z,44.20
2023-04-10T08:33:22.234Z,45.67
2023-04-10T08:35:50.014Z,44.92
2023-04-10T08:38:17.722Z,43.14
2023-04-10T08:40:45.615Z,44.54
2023-04-10T08:43:13.548Z,45.58
2023-04-10T08:45:43.571Z,45.02
2023-04-10T08:48:12.549Z,43.98
2023-04-10T08:50:44.006Z,43.93
2023-04-10T08:53:13.438Z,42.32
2023-04-10T08:55:42.049Z,43.98
2023-04-10T08:58:13.724Z,43.53
2023-04-10T09:03:27.143Z,44.35
2023-04-10T09:05:55.759Z,43.28
2023-04-10T09:08:23.528Z,42.36
2023-04-10T09:10:53.919Z,44.40
2023-04-10T09:13:36.600Z,42.17
2023-04-10T09:16:06.356Z,42.81
2023-04-10T09:18:43.518Z,40.75
2023-04-10T09:21:13.941Z,42.15
2023-04-10T09:23:42.850Z,41.50
2023-04-10T09:26:27.225Z,41.50
2023-04-10T09:28:59.289Z,40.78
2023-04-10T09:31:38.516Z,40.39
2023-04-10T09:34:12.273Z,39.52
2023-04-10T09:36:41.423Z,39.59
2023-04-10T09:39:10.721Z,39.86
2023-04-10T09:41:48.938Z,39.39
2023-04-10T09:44:18.858Z,38.41
2023-04-10T09:46:49.701Z,36.97
2023-04-10T09:49:17.408Z,36.22
2023-04-10T09:51:45.566Z,35.89
2023-04-10T09:54:13.209Z,35.46
2023-04-10T09:56:41.091Z,35.71
2023-04-10T09:59:09.569Z,35.83
2023-04-10T10:01:38.847Z,35.13
2023-04-10T10:04:09.293Z,34.45
2023-04-10T10:06:39.454Z,34.64
2023-04-10T10:09:07.300Z,35.33
2023-04-10T10:11:36.273Z,33.92
2023-04-10T10:14:05.937Z,33.73
2023-04-10T10:16:37.276Z,35.00
2023-04-10T10:19:10.572Z,35.18
2023-04-10T10:21:39.923Z,34.06
2023-04-10T10:24:09.536Z,34.83
2023-04-10T10:26:38.862Z,34.52
2023-04-10T10:29:10.599Z,34.66
2023-04-10T10:31:39.034Z,34.15
2023-04-10T10:34:09.148Z,34.18
2023-04-10T10:36:41.420Z,34.94
2023-04-10T10:39:19.639Z,34.02
2023-04-10T10:41:54.323Z,34.19
2023-04-10T10:44:27.940Z,33.92
2023-04-10T10:47:04.297Z,32.75
2023-04-10T10:49:56.992Z,34.52
2023-04-10T10:52:46.797Z,33.83
2023-04-10T10:55:32.517Z,34.08
2023-04-10T10:58:02.272Z,34.39
2023-04-10T11:01:08.425Z,35.62
2023-04-10T11:03:37.893Z,34.37
2023-04-10T11:06:08.627Z,33.83
2023-04-10T11:08:44.274Z,33.57
2023-04-10T11:11:16.016Z,32.36
2023-04-10T11:14:13.955Z,33.79
2023-04-10T11:16:46.802Z,33.10
2023-04-10T11:19:16.633Z,33.00
2023-04-10T11:22:05.724Z,32.07
2023-04-10T11:24:57.502Z,32.14
2023-04-10T11:27:44.763Z,32.53
2023-04-10T11:30:29.697Z,32.15
2023-04-10T11:32:57.744Z,31.97
2023-04-10T11:35:27.173Z,31.05
2023-04-10T11:38:09.812Z,30.88
2023-04-10T11:40:54.485Z,31.17
2023-04-10T11:43:22.276Z,30.45
2023-04-10T11:45:50.465Z,29.87
2023-04-10T11:48:18.316Z,30.07
2023-04-10T11:50:46.026Z,31.05
2023-04-10T11:53:21.571Z,31.09
2023-04-10T11:55:51.816Z,29.37
2023-04-10T11:58:24.000Z,31.13
2023-04-10T12:00:59.217Z,30.74
2023-04-10T12:03:35.252Z,30.12
2023-04-10T12:06:03.243Z,30.14
2023-04-10T12:08:34.184Z,29.93
2023-04-10T12:11:03.619Z,30.03
2023-04-10T12:13:32.795Z,30.97
2023-04-10T12:16:01.601Z,30.19
2023-04-10T12:18:30.436Z,30.16
2023-04-10T12:20:59.871Z,29.06
2023-04-10T12:23:28.658Z,29.59
2023-04-10T12:26:10.443Z,29.88
2023-04-10T12:28:39.178Z,30.37
2023-04-10T12:31:07.622Z,29.04
2023-04-10T12:33:35.579Z,29.31
2023-04-10T12:36:03.902Z,29.66
2023-04-10T12:38:42.397Z,29.15
2023-04-10T12:41:12.685Z,28.97
2023-04-10T12:43:42.161Z,28.43
2023-04-10T12:46:11.666Z,28.71
2023-04-10T12:48:39.556Z,27.74
2023-04-10T12:51:08.100Z,27.93
2023-04-10T12:53:45.050Z,28.09
2023-04-10T12:56:14.706Z,28.06
2023-04-10T12:58:43.758Z,28.67
2023-04-10T13:01:12.004Z,29.50
2023-04-10T13:03:39.914Z,29.30
2023-04-10T13:06:08.654Z,29.04
2023-04-10T13:08:37.219Z,28.83
2023-04-10T13:11:05.205Z,28.11
2023-04-10T13:13:34.285Z,27.10
2023-04-10T13:16:01.936Z,27.25
2023-04-10T13:18:29.716Z,27.86
2023-04-10T13:20:57.365Z,27.50
2023-04-10T13:23:25.012Z,27.69
2023-04-10T13:25:53.645Z,27.43
2023-04-10T13:28:21.635Z,26.67
2023-04-10T13:30:50.637Z,25.98
2023-04-10T13:33:18.399Z,26.72
2023-04-10T13:36:03.827Z,26.09
2023-04-10T13:38:31.537Z,25.82
2023-04-10T13:40:59.207Z,25.13
2023-04-10T13:43:26.918Z,25.24
2023-04-10T13:45:56.067Z,25.57
2023-04-10T13:48:29.942Z,26.81
2023-04-10T13:51:05.765Z,26.83
2023-04-10T13:53:33.418Z,27.06
2023-04-10T13:56:01.112Z,29.21
2023-04-10T13:58:32.174Z,27.16
2023-04-10T14:01:01.661Z,28.57
2023-04-10T14:03:29.668Z,27.82
2023-04-10T14:05:57.416Z,28.55
2023-04-10T14:08:25.051Z,28.62
2023-04-10T14:10:52.788Z,28.80
2023-04-10T14:13:20.633Z,27.81
2023-04-10T14:15:48.369Z,29.72
2023-04-10T14:18:18.460Z,28.82
2023-04-10T14:20:46.347Z,28.71
2023-04-10T14:23:18.300Z,29.07
2023-04-10T14:25:46.358Z,29.51
2023-04-10T14:28:17.951Z,29.61
2023-04-10T14:30:45.906Z,29.55
2023-04-10T14:33:13.973Z,29.91
2023-04-10T14:35:45.204Z,29.95
2023-04-10T14:38:12.898Z,30.43
2023-04-10T14:40:41.315Z,30.77
2023-04-10T14:43:09.408Z,30.60
2023-04-10T14:45:37.040Z,30.72
2023-04-10T14:48:05.031Z,30.93
2023-04-10T14:50:33.289Z,29.79
2023-04-10T14:53:03.288Z,29.70
2023-04-10T14:55:31.207Z,31.13
2023-04-10T14:57:59.114Z,31.32
2023-04-10T15:00:27.252Z,30.26
2023-04-10T15:02:57.256Z,30.73
2023-04-10T15:05:26.480Z,30.05
2023-04-10T15:07:54.299Z,30.26
2023-04-10T15:10:23.733Z,30.25
2023-04-10T15:12:51.358Z,29.92
2023-04-10T15:15:19.390Z,30.60
2023-04-10T15:17:47.310Z,30.53
2023-04-10T15:20:15.216Z,31.40
2023-04-10T15:22:45.006Z,31.39
2023-04-10T15:25:12.993Z,31.31
2023-04-10T15:27:42.757Z,31.47
2023-04-10T15:30:11.076Z,31.40
2023-04-10T15:32:39.135Z,32.22
2023-04-10T15:35:07.803Z,32.03
2023-04-10T15:37:36.393Z,32.33
2023-04-10T15:40:06.282Z,31.69
2023-04-10T15:42:34.108Z,33.12
2023-04-10T15:45:03.205Z,32.10
2023-04-10T15:47:31.109Z,32.45
2023-04-10T15:49:58.963Z,33.11
2023-04-10T15:52:29.200Z,33.22
2023-04-10T15:54:56.897Z,32.44
2023-04-10T15:57:36.027Z,33.37
2023-04-10T16:00:05.776Z,33.00
2023-04-10T16:02:33.711Z,33.14
2023-04-10T16:05:01.799Z,32.96
2023-04-10T16:07:29.664Z,34.90
2023-04-10T16:09:58.326Z,34.46
2023-04-10T16:12:26.034Z,33.86
2023-04-10T16:14:53.700Z,33.33
2023-04-10T16:17:22.832Z,33.69
2023-04-10T16:19:50.658Z,33.41
2023-04-10T16:22:18.325Z,33.05
2023-04-10T16:24:46.078Z,33.59
2023-04-10T16:27:13.735Z,33.29
2023-04-10T16:29:41.412Z,32.61
2023-04-10T16:32:09.077Z,32.96
2023-04-10T16:34:38.115Z,34.58
2023-04-10T16:37:05.823Z,32.97
2023-04-10T16:39:36.941Z,34.27
2023-04-10T16:42:04.955Z,34.10
2023-04-10T16:44:32.943Z,34.52
2023-04-10T16:47:00.844Z,33.79
2023-04-10T16:49:28.679Z,33.96
2023-04-10T16:51:57.740Z,34.22
2023-04-10T16:54:25.381Z,34.09
2023-04-10T16:56:53.011Z,34.50
2023-04-10T16:59:20.693Z,35.65
2023-04-10T17:01:48.449Z,34.80
2023-04-10T17:04:18.102Z,34.49
2023-04-10T17:06:45.949Z,34.80
2023-04-10T17:09:15.322Z,34.88
2023-04-10T17:11:43.052Z,34.99
2023-04-10T17:14:13.250Z,34.38
2023-04-10T17:16:41.273Z,34.79
2023-04-10T17:19:08.955Z,34.85
2023-04-10T17:21:36.588Z,35.37
2023-04-10T17:24:04.559Z,35.08
2023-04-10T17:26:33.631Z,35.26
2023-04-10T17:29:01.306Z,35.23
2023-04-10T17:31:29.561Z,36.13
2023-04-10T17:33:58.237Z,36.25
2023-04-10T17:36:26.709Z,36.84
2023-04-10T17:38:54.477Z,37.18
2023-04-10T17:41:22.494Z,36.88
2023-04-10T17:43:51.655Z,36.30
2023-04-10T17:46:19.284Z,36.87
2023-04-10T17:48:47.291Z,37.23
2023-04-10T17:51:15.066Z,38.47
2023-04-10T17:53:42.796Z,39.90
2023-04-10T17:56:18.469Z,42.54
2023-04-10T17:58:46.226Z,47.44
2023-04-10T18:01:21.915Z,50.72
2023-04-10T18:03:49.846Z,55.08
2023-04-10T18:06:17.607Z,57.93
2023-04-10T18:08:45.382Z,61.72
2023-04-10T18:11:13.059Z,64.79
2023-04-10T18:13:40.729Z,70.34
2023-04-10T18:16:10.843Z,73.89
2023-04-10T18:18:41.865Z,76.05
2023-04-10T18:21:10.580Z,75.06
2023-04-10T18:23:39.524Z,77.10
2023-04-10T18:26:07.877Z,77.67
2023-04-10T18:28:37.807Z,82.19
2023-04-10T18:31:06.508Z,82.25
2023-04-10T18:33:34.420Z,81.47
2023-04-10T18:36:03.962Z,82.21
2023-04-10T18:38:31.876Z,81.32
2023-04-10T18:40:59.712Z,84.09
2023-04-10T18:43:28.546Z,81.89
2023-04-10T18:45:56.405Z,80.97
2023-04-10T18:48:24.237Z,83.79
2023-04-10T18:50:52.544Z,81.06
2023-04-10T18:53:21.984Z,83.38
2023-04-10T18:55:51.837Z,86.42
2023-04-10T18:58:19.844Z,86.04
2023-04-10T19:00:47.794Z,87.99
2023-04-10T19:03:16.171Z,86.84
2023-04-10T19:05:44.542Z,87.06
2023-04-10T19:08:14.277Z,86.72
2023-04-10T19:10:43.719Z,87.71
2023-04-10T19:13:12.350Z,84.70
2023-04-10T19:15:41.686Z,87.19
2023-04-10T19:18:09.809Z,85.74
2023-04-10T19:20:49.878Z,88.35
2023-04-10T19:23:19.049Z,89.33
2023-04-10T19:25:48.169Z,88.33
2023-04-10T19:28:15.936Z,89.68
2023-04-10T19:30:43.751Z,90.98
2023-04-10T19:33:11.534Z,88.06
2023-04-10T19:35:39.243Z,91.88
2023-04-10T19:38:06.950Z,89.57
2023-04-10T19:40:34.600Z,90.38
2023-04-10T19:43:03.908Z,93.21
2023-04-10T19:45:32.498Z,91.60
2023-04-10T19:48:00.790Z,90.59
2023-04-10T19:50:30.079Z,91.99
2023-04-10T19:52:58.092Z,88.99
2023-04-10T19:55:26.001Z,92.76
2023-04-10T19:57:54.656Z,94.54
2023-04-10T20:00:23.768Z,98.90
2023-04-10T20:05:32.499Z,100.00
2023-04-10T20:08:00.164Z,100.00
2023-04-10T20:10:27.870Z,100.00
2023-04-10T20:12:55.577Z,100.00
2023-04-10T20:15:24.690Z,100.00
2023-04-10T20:17:52.778Z,100.00
2023-04-10T20:20:20.636Z,100.00
2023-04-10T20:22:48.912Z,100.00
2023-04-10T20:25:18.384Z,100.00
2023-04-10T20:27:45.999Z,100.00
2023-04-10T20:30:13.887Z,100.00
2023-04-10T20:32:43.000Z,100.00
2023-04-10T20:35:11.098Z,100.00
2023-04-10T20:37:38.763Z,100.00
2023-04-10T20:40:07.938Z,98.86
2023-04-10T20:42:35.630Z,100.00
2023-04-10T20:45:03.848Z,97.80
2023-04-10T20:47:31.609Z,96.32
2023-04-10T20:50:00.683Z,100.00
2023-04-10T20:52:28.343Z,100.00
2023-04-10T20:54:56.114Z,100.00
2023-04-10T20:57:23.818Z,97.92
2023-04-10T20:59:51.539Z,100.00
2023-04-10T21:02:19.257Z,100.00
2023-04-10T21:04:47.102Z,100.00
2023-04-10T21:07:16.598Z,99.61
2023-04-10T21:09:44.252Z,100.00
2023-04-10T21:12:11.901Z,100.00
2023-04-10T21:14:39.754Z,100.00
2023-04-10T21:17:07.550Z,100.00
2023-04-10T21:19:35.205Z,98.48
2023-04-10T21:22:02.856Z,100.00
2023-04-10T21:24:31.900Z,99.55
2023-04-10T21:26:59.593Z,96.91
2023-04-10T21:29:27.248Z,95.53
2023-04-10T21:31:54.933Z,97.58
2023-04-10T21:34:22.896Z,95.55
2023-04-10T21:39:40.590Z,96.45
2023-04-10T21:42:08.206Z,94.92
2023-04-10T21:44:35.937Z,94.91
2023-04-10T21:47:03.613Z,91.04
2023-04-10T21:49:31.257Z,94.02
2023-04-10T21:51:59.366Z,92.64
2023-04-10T21:54:27.339Z,92.71
2023-04-10T21:56:56.369Z,93.55
2023-04-10T21:59:24.005Z,93.42
2023-04-10T22:01:51.774Z,91.59
2023-04-10T22:04:19.567Z,95.38
2023-04-10T22:06:47.308Z,95.76
2023-04-10T22:09:15.006Z,95.36
2023-04-10T22:11:42.703Z,96.62
2023-04-10T22:14:17.996Z,93.55
2023-04-10T22:16:46.564Z,97.82
2023-04-10T22:19:14.421Z,97.08
2023-04-10T22:21:42.132Z,100.00
2023-04-10T22:24:09.925Z,100.00
2023-04-10T22:26:37.735Z,100.00
2023-04-10T22:29:05.704Z,97.74
2023-04-10T22:31:35.031Z,98.37
2023-04-10T22:34:02.707Z,100.00
2023-04-10T22:36:33.342Z,100.00
2023-04-10T22:39:01.029Z,99.98
2023-04-10T22:41:28.937Z,98.29
2023-04-10T22:43:56.562Z,100.00
2023-04-10T22:46:24.309Z,97.00
2023-04-10T22:48:55.546Z,99.05
2023-04-10T22:51:23.429Z,97.87
2023-04-10T22:53:51.326Z,93.44
2023-04-10T22:56:40.004Z,94.24
2023-04-10T22:59:07.659Z,92.10
2023-04-10T23:01:35.755Z,95.28
2023-04-10T23:04:05.050Z,95.45
2023-04-10T23:06:33.138Z,96.64
2023-04-10T23:09:00.953Z,93.70
2023-04-10T23:11:40.696Z,99.71
2023-04-10T23:14:08.441Z,95.11
2023-04-10T23:16:36.160Z,96.35
2023-04-10T23:19:05.301Z,98.06
2023-04-10T23:21:32.932Z,98.11
2023-04-10T23:24:00.705Z,93.16
2023-04-10T23:26:30.843Z,95.40
2023-04-10T23:28:58.795Z,97.46
2023-04-10T23:31:26.530Z,95.54
2023-04-10T23:33:54.357Z,92.96
2023-04-10T23:36:23.416Z,95.51
2023-04-10T23:38:51.152Z,97.99
2023-04-10T23:41:18.938Z,93.67
2023-04-10T23:43:46.640Z,96.95
2023-04-10T23:46:14.282Z,96.84
2023-04-10T23:48:41.992Z,100.00
2023-04-10T23:51:10.155Z,98.89
2023-04-10T23:53:39.180Z,98.97
2023-04-10T23:56:08.001Z,99.11
2023-04-10T23:58:35.792Z,95.93
